createdAt,value
2018-06-27T00:00:57.758Z,4.20
2018-06-27T00:03:30.212Z,3.97
2018-06-27T00:06:02.733Z,3.90
2018-06-27T00:08:35.138Z,4.30
2018-06-27T00:11:08.053Z,3.87
2018-06-27T00:13:41.191Z,4.10
2018-06-27T00:16:13.671Z,5.10
2018-06-27T00:18:46.222Z,4.50
2018-06-27T00:21:18.667Z,3.97
2018-06-27T00:23:51.135Z,4.00
2018-06-27T00:26:24.209Z,4.07
2018-06-27T00:28:56.657Z,4.10
2018-06-27T00:31:29.270Z,3.80
2018-06-27T00:34:01.865Z,4.40
2018-06-27T00:36:34.314Z,4.27
2018-06-27T00:39:08.412Z,4.07
2018-06-27T00:41:41.618Z,4.23
2018-06-27T00:44:14.089Z,4.60
2018-06-27T00:46:46.495Z,4.40
2018-06-27T00:49:19.239Z,4.30
2018-06-27T00:51:51.669Z,4.20
2018-06-27T00:54:24.589Z,3.90
2018-06-27T00:56:56.998Z,4.53
2018-06-27T00:59:30.452Z,4.67
2018-06-27T01:02:02.931Z,4.10
2018-06-27T01:04:35.436Z,4.93
2018-06-27T01:07:07.903Z,4.40
2018-06-27T01:09:40.342Z,4.10
2018-06-27T01:12:12.914Z,4.53
2018-06-27T01:14:45.337Z,4.50
2018-06-27T01:17:17.822Z,4.77
2018-06-27T01:19:50.339Z,4.17
2018-06-27T01:22:22.784Z,4.10
2018-06-27T01:24:55.328Z,4.30
2018-06-27T01:27:27.743Z,3.93
2018-06-27T01:30:00.135Z,4.30
2018-06-27T01:32:32.630Z,4.13
2018-06-27T01:35:05.398Z,4.20
2018-06-27T01:37:37.871Z,4.23
2018-06-27T01:40:10.325Z,4.50
2018-06-27T01:42:43.126Z,4.50
2018-06-27T01:45:15.559Z,4.03
2018-06-27T01:47:48.021Z,4.23
2018-06-27T01:50:22.495Z,4.30
2018-06-27T01:52:54.969Z,4.37
2018-06-27T01:55:27.468Z,4.07
2018-06-27T01:58:00.126Z,4.40
2018-06-27T02:00:32.601Z,4.50
2018-06-27T02:03:06.076Z,4.10
2018-06-27T02:05:38.533Z,4.20
2018-06-27T02:08:10.973Z,4.00
2018-06-27T02:10:43.441Z,4.17
2018-06-27T02:13:15.901Z,4.37
2018-06-27T02:15:48.346Z,4.10
2018-06-27T02:18:20.782Z,5.30
2018-06-27T02:20:53.275Z,4.60
2018-06-27T02:23:25.734Z,4.00
2018-06-27T02:25:58.198Z,4.67
2018-06-27T02:28:30.694Z,4.37
2018-06-27T02:31:03.175Z,4.07
2018-06-27T02:33:35.646Z,4.13
2018-06-27T02:36:08.089Z,4.37
2018-06-27T02:38:40.541Z,4.63
2018-06-27T02:41:12.973Z,4.47
2018-06-27T02:43:45.438Z,5.07
2018-06-27T02:46:17.938Z,4.37
2018-06-27T02:48:50.718Z,4.30
2018-06-27T02:51:23.193Z,4.13
2018-06-27T02:53:55.684Z,4.43
2018-06-27T02:56:28.534Z,4.03
2018-06-27T02:59:00.960Z,4.37
2018-06-27T03:01:33.462Z,4.20
2018-06-27T03:04:05.910Z,4.73
2018-06-27T03:06:38.390Z,4.13
2018-06-27T03:09:11.340Z,4.13
2018-06-27T03:11:43.757Z,4.40
2018-06-27T03:14:16.480Z,4.57
2018-06-27T03:16:48.897Z,4.40
2018-06-27T03:19:21.379Z,5.03
2018-06-27T03:21:53.906Z,4.73
2018-06-27T03:24:26.374Z,4.80
2018-06-27T03:26:58.847Z,4.87
2018-06-27T03:29:31.311Z,4.77
2018-06-27T03:32:03.791Z,4.30
2018-06-27T03:34:36.266Z,4.43
2018-06-27T03:37:08.891Z,4.30
2018-06-27T03:39:41.428Z,4.87
2018-06-27T03:42:14.017Z,5.30
2018-06-27T03:44:46.506Z,4.60
2018-06-27T03:47:18.959Z,4.87
2018-06-27T03:49:51.431Z,5.10
2018-06-27T03:52:23.898Z,5.03
2018-06-27T03:54:56.349Z,4.87
2018-06-27T03:57:28.807Z,4.60
2018-06-27T04:00:01.346Z,4.50
2018-06-27T04:02:35.409Z,4.87
2018-06-27T04:05:07.903Z,4.57
2018-06-27T04:07:40.434Z,4.17
2018-06-27T04:10:13.035Z,4.10
2018-06-27T04:12:45.538Z,4.20
2018-06-27T04:15:17.993Z,4.07
2018-06-27T04:17:51.084Z,3.83
2018-06-27T04:20:23.545Z,4.33
2018-06-27T04:22:56.053Z,3.90
2018-06-27T04:25:28.474Z,4.20
2018-06-27T04:28:01.110Z,3.60
2018-06-27T04:30:33.561Z,3.83
2018-06-27T04:33:06.143Z,3.77
2018-06-27T04:35:38.607Z,3.47
2018-06-27T04:38:11.104Z,3.30
2018-06-27T04:40:44.007Z,3.20
2018-06-27T04:43:17.836Z,3.30
2018-06-27T04:45:50.273Z,4.27
2018-06-27T04:48:22.736Z,3.47
2018-06-27T04:50:55.223Z,4.00
2018-06-27T04:53:28.062Z,3.40
2018-06-27T04:56:00.581Z,3.47
2018-06-27T04:58:33.302Z,3.50
2018-06-27T05:01:05.750Z,3.47
2018-06-27T05:03:38.971Z,2.77
2018-06-27T05:06:11.486Z,3.17
2018-06-27T05:08:43.938Z,3.10
2018-06-27T05:11:16.695Z,3.10
2018-06-27T05:13:49.395Z,3.20
2018-06-27T05:16:22.142Z,3.10
2018-06-27T05:18:54.703Z,2.90
2018-06-27T05:21:27.112Z,2.87
2018-06-27T05:24:00.811Z,3.23
2018-06-27T05:26:33.223Z,3.10
2018-06-27T05:29:05.944Z,3.57
2018-06-27T05:31:38.348Z,3.20
2018-06-27T05:34:11.080Z,3.87
2018-06-27T05:36:43.739Z,3.40
2018-06-27T05:39:16.235Z,3.40
2018-06-27T05:41:48.884Z,3.17
2018-06-27T05:44:22.824Z,3.83
2018-06-27T05:46:55.440Z,3.17
2018-06-27T05:49:27.930Z,3.43
2018-06-27T05:52:00.368Z,3.30
2018-06-27T05:54:32.944Z,2.87
2018-06-27T05:57:05.390Z,3.13
2018-06-27T05:59:37.867Z,3.33
2018-06-27T06:02:10.275Z,2.63
2018-06-27T06:04:43.238Z,3.20
2018-06-27T06:07:15.686Z,2.97
2018-06-27T06:09:48.314Z,3.40
2018-06-27T06:12:21.273Z,3.30
2018-06-27T06:14:54.252Z,3.40
2018-06-27T06:17:26.798Z,3.13
2018-06-27T06:19:59.195Z,3.10
2018-06-27T06:22:31.706Z,2.77
2018-06-27T06:25:04.554Z,2.57
2018-06-27T06:27:37.017Z,2.50
2018-06-27T06:30:09.707Z,2.70
2018-06-27T06:32:42.171Z,2.80
2018-06-27T06:35:14.858Z,3.20
2018-06-27T06:37:47.370Z,2.80
2018-06-27T06:40:20.097Z,3.20
2018-06-27T06:42:52.615Z,2.47
2018-06-27T06:45:25.203Z,2.57
2018-06-27T06:47:57.633Z,2.70
2018-06-27T06:50:31.618Z,2.83
2018-06-27T06:53:04.208Z,2.93
2018-06-27T06:55:36.614Z,2.87
2018-06-27T06:58:09.269Z,2.87
2018-06-27T07:00:41.665Z,3.20
2018-06-27T07:03:14.172Z,2.70
2018-06-27T07:05:46.671Z,2.50
2018-06-27T07:08:19.400Z,2.60
2018-06-27T07:10:52.228Z,2.87
2018-06-27T07:13:24.721Z,3.03
2018-06-27T07:15:57.200Z,2.40
2018-06-27T07:18:30.089Z,2.60
2018-06-27T07:21:02.821Z,3.10
2018-06-27T07:23:35.342Z,3.00
2018-06-27T07:26:07.834Z,2.90
2018-06-27T07:28:40.458Z,3.50
2018-06-27T07:31:13.147Z,2.90
2018-06-27T07:33:46.345Z,2.63
2018-06-27T07:36:18.841Z,2.70
2018-06-27T07:38:51.422Z,2.63
2018-06-27T07:41:23.832Z,2.47
2018-06-27T07:43:56.252Z,2.33
2018-06-27T07:46:28.701Z,3.20
2018-06-27T07:49:02.047Z,2.70
2018-06-27T07:51:34.471Z,2.30
2018-06-27T07:54:06.975Z,2.40
2018-06-27T07:56:39.422Z,6.77
2018-06-27T07:59:12.299Z,3.50
2018-06-27T08:01:44.744Z,4.87
2018-06-27T08:04:17.298Z,2.30
2018-06-27T08:06:49.899Z,2.77
2018-06-27T08:09:22.358Z,2.27
2018-06-27T08:11:54.789Z,2.00
2018-06-27T08:14:27.293Z,2.00
2018-06-27T08:16:59.873Z,2.40
2018-06-27T08:19:33.462Z,1.90
2018-06-27T08:22:06.193Z,2.10
2018-06-27T08:24:39.048Z,2.00
2018-06-27T08:27:11.601Z,1.50
2018-06-27T08:29:44.168Z,1.80
2018-06-27T08:32:16.706Z,2.37
2018-06-27T08:34:49.851Z,2.70
2018-06-27T08:37:22.511Z,2.60
2018-06-27T08:39:55.069Z,2.00
2018-06-27T08:42:27.493Z,2.23
2018-06-27T08:45:00.847Z,2.23
2018-06-27T08:47:33.440Z,2.27
2018-06-27T08:50:06.188Z,1.80
2018-06-27T08:52:38.626Z,1.60
2018-06-27T08:55:11.088Z,1.67
2018-06-27T08:57:43.678Z,1.53
2018-06-27T09:00:16.276Z,1.73
2018-06-27T09:02:48.872Z,1.50
2018-06-27T09:05:21.298Z,1.90
2018-06-27T09:07:53.965Z,1.73
2018-06-27T09:10:26.403Z,1.70
2018-06-27T09:12:58.868Z,1.50
2018-06-27T09:15:31.567Z,1.60
2018-06-27T09:18:04.090Z,1.80
2018-06-27T09:20:36.671Z,1.60
2018-06-27T09:23:09.147Z,1.67
2018-06-27T09:25:41.682Z,2.20
2018-06-27T09:28:14.536Z,2.40
2018-06-27T09:30:47.011Z,2.03
2018-06-27T09:33:19.520Z,1.60
2018-06-27T09:35:53.448Z,2.30
2018-06-27T09:38:26.025Z,1.90
2018-06-27T09:40:59.016Z,2.83
2018-06-27T09:43:31.829Z,1.90
2018-06-27T09:46:04.497Z,2.00
2018-06-27T09:48:37.312Z,1.80
2018-06-27T09:51:09.846Z,1.87
2018-06-27T09:53:42.428Z,3.60
2018-06-27T09:56:14.881Z,1.80
2018-06-27T09:58:47.590Z,2.03
2018-06-27T10:01:20.092Z,2.50
2018-06-27T10:03:52.589Z,2.23
2018-06-27T10:06:25.066Z,3.20
2018-06-27T10:08:57.730Z,3.63
2018-06-27T10:11:30.251Z,2.30
2018-06-27T10:14:03.261Z,2.27
2018-06-27T10:16:35.789Z,2.87
2018-06-27T10:19:10.132Z,2.37
2018-06-27T10:21:43.763Z,2.20
2018-06-27T10:24:17.004Z,2.07
2018-06-27T10:26:49.959Z,2.00
2018-06-27T10:29:22.482Z,1.70
2018-06-27T10:31:55.094Z,1.70
2018-06-27T10:34:27.564Z,1.70
2018-06-27T10:37:00.012Z,2.30
2018-06-27T10:39:32.562Z,1.97
2018-06-27T10:42:05.036Z,2.20
2018-06-27T10:44:37.583Z,2.30
2018-06-27T10:47:12.231Z,2.53
2018-06-27T10:49:45.874Z,2.10
2018-06-27T10:52:18.404Z,2.80
2018-06-27T10:54:51.294Z,1.90
2018-06-27T10:57:24.095Z,2.20
2018-06-27T10:59:57.391Z,2.80
2018-06-27T11:02:29.899Z,2.10
2018-06-27T11:05:02.348Z,1.63
2018-06-27T11:07:35.168Z,2.13
2018-06-27T11:10:08.935Z,1.70
2018-06-27T11:12:41.352Z,1.87
2018-06-27T11:15:13.860Z,2.13
2018-06-27T11:17:46.292Z,2.27
2018-06-27T11:20:18.888Z,2.10
2018-06-27T11:22:51.678Z,3.37
2018-06-27T11:25:24.230Z,2.20
2018-06-27T11:27:57.976Z,1.90
2018-06-27T11:30:30.548Z,1.90
2018-06-27T11:33:03.180Z,2.00
2018-06-27T11:35:35.774Z,2.00
2018-06-27T11:38:08.611Z,1.87
2018-06-27T11:40:41.077Z,2.17
2018-06-27T11:43:13.526Z,1.80
2018-06-27T11:45:46.195Z,2.00
2018-06-27T11:48:18.728Z,2.03
2018-06-27T11:50:52.231Z,1.80
2018-06-27T11:53:25.053Z,1.80
2018-06-27T11:55:57.471Z,1.80
2018-06-27T11:58:30.063Z,2.97
2018-06-27T12:01:02.550Z,2.03
2018-06-27T12:03:35.914Z,2.00
2018-06-27T12:06:08.394Z,2.47
2018-06-27T12:08:41.458Z,2.17
2018-06-27T12:11:14.004Z,3.80
2018-06-27T12:13:47.033Z,2.30
2018-06-27T12:16:20.083Z,2.10
2018-06-27T12:18:53.884Z,3.10
2018-06-27T12:21:27.152Z,2.27
2018-06-27T12:24:00.273Z,2.00
2018-06-27T12:26:32.914Z,1.80
2018-06-27T12:29:05.520Z,2.00
2018-06-27T12:31:39.169Z,2.20
2018-06-27T12:34:12.577Z,2.20
2018-06-27T12:36:45.395Z,2.07
2018-06-27T12:39:17.851Z,1.80
2018-06-27T12:41:50.595Z,1.90
2018-06-27T12:44:23.071Z,1.80
2018-06-27T12:46:55.801Z,2.37
2018-06-27T12:49:28.287Z,1.93
2018-06-27T12:52:01.215Z,1.90
2018-06-27T12:54:34.115Z,2.10
2018-06-27T12:57:07.610Z,2.30
2018-06-27T12:59:40.898Z,2.33
2018-06-27T13:02:13.840Z,1.87
2018-06-27T13:04:46.671Z,1.90
2018-06-27T13:07:19.607Z,1.70
2018-06-27T13:09:52.190Z,1.90
2018-06-27T13:12:26.778Z,2.07
2018-06-27T13:14:59.302Z,1.67
2018-06-27T13:17:32.368Z,2.27
2018-06-27T13:20:05.838Z,2.40
2018-06-27T13:22:38.294Z,3.73
2018-06-27T13:25:11.966Z,1.97
2018-06-27T13:27:44.571Z,1.70
2018-06-27T13:30:17.125Z,1.77
2018-06-27T13:32:52.047Z,1.70
2018-06-27T13:35:28.519Z,1.60
2018-06-27T13:38:02.910Z,2.30
2018-06-27T13:40:35.814Z,1.97
2018-06-27T13:43:09.184Z,1.90
2018-06-27T13:45:42.369Z,1.90
2018-06-27T13:48:15.027Z,2.20
2018-06-27T13:50:47.897Z,2.40
2018-06-27T13:53:20.818Z,2.00
2018-06-27T13:55:53.908Z,2.10
2018-06-27T13:58:26.557Z,2.20
2018-06-27T14:00:59.112Z,2.03
2018-06-27T14:03:31.791Z,2.10
2018-06-27T14:06:04.676Z,1.80
2018-06-27T14:08:41.522Z,1.87
2018-06-27T14:15:39.961Z,1.80
2018-06-27T14:18:28.456Z,2.10
2018-06-27T14:21:15.071Z,4.77
2018-06-27T14:23:48.056Z,2.57
2018-06-27T14:26:20.754Z,3.20
2018-06-27T14:28:53.253Z,2.00
2018-06-27T14:31:26.119Z,2.00
2018-06-27T14:33:58.899Z,2.20
2018-06-27T14:36:31.591Z,1.93
2018-06-27T14:39:06.600Z,1.77
2018-06-27T14:41:39.547Z,1.50
2018-06-27T14:44:12.094Z,1.93
2018-06-27T14:46:44.560Z,2.00
2018-06-27T14:49:17.290Z,2.23
2018-06-27T14:51:50.131Z,2.00
2018-06-27T14:54:22.651Z,2.37
2018-06-27T14:56:55.263Z,2.40
2018-06-27T14:59:27.861Z,2.20
2018-06-27T15:02:01.318Z,1.80
2018-06-27T15:04:34.297Z,2.13
2018-06-27T15:07:07.210Z,2.30
2018-06-27T15:09:40.090Z,2.27
2018-06-27T15:12:13.881Z,2.13
2018-06-27T15:14:46.594Z,2.40
2018-06-27T15:17:20.342Z,3.37
2018-06-27T15:19:53.169Z,9.73
2018-06-27T15:22:25.645Z,3.80
2018-06-27T15:24:58.767Z,2.30
2018-06-27T15:27:31.935Z,2.47
2018-06-27T15:30:04.984Z,2.77
2018-06-27T15:32:37.654Z,2.40
2018-06-27T15:35:10.380Z,2.10
2018-06-27T15:37:43.089Z,2.90
2018-06-27T15:40:15.581Z,2.07
2018-06-27T15:42:48.369Z,1.73
2018-06-27T15:45:21.441Z,1.80
2018-06-27T15:47:53.859Z,2.20
2018-06-27T15:50:26.950Z,1.97
2018-06-27T15:52:59.757Z,2.20
2018-06-27T15:55:32.292Z,2.20
2018-06-27T15:58:06.786Z,1.87
2018-06-27T16:00:39.322Z,2.20
2018-06-27T16:03:12.583Z,1.70
2018-06-27T16:05:45.172Z,2.23
2018-06-27T16:08:17.800Z,2.47
2018-06-27T16:10:50.912Z,2.70
2018-06-27T16:13:23.893Z,2.00
2018-06-27T16:15:56.560Z,2.93
2018-06-27T16:18:29.254Z,1.90
2018-06-27T16:21:01.830Z,2.10
2018-06-27T16:23:34.401Z,2.20
2018-06-27T16:26:07.079Z,2.30
2018-06-27T16:28:39.862Z,2.80
2018-06-27T16:31:12.973Z,2.73
2018-06-27T16:33:45.538Z,2.60
2018-06-27T16:36:18.281Z,2.53
2018-06-27T16:38:50.935Z,2.80
2018-06-27T16:41:23.420Z,2.13
2018-06-27T16:43:55.867Z,2.77
2018-06-27T16:46:28.699Z,3.57
2018-06-27T16:49:01.523Z,2.70
2018-06-27T16:51:34.169Z,4.50
2018-06-27T16:54:07.081Z,3.03
2018-06-27T16:56:39.880Z,2.40
2018-06-27T16:59:13.753Z,2.50
2018-06-27T17:01:46.222Z,2.40
2018-06-27T17:04:19.091Z,2.00
2018-06-27T17:06:51.842Z,2.17
2018-06-27T17:09:24.420Z,2.30
2018-06-27T17:11:57.568Z,2.57
2018-06-27T17:14:30.562Z,3.90
2018-06-27T17:17:03.584Z,2.30
2018-06-27T17:19:36.189Z,2.60
2018-06-27T17:22:08.855Z,2.40
2018-06-27T17:24:41.469Z,2.67
2018-06-27T17:27:14.069Z,2.27
2018-06-27T17:29:48.300Z,2.57
2018-06-27T17:32:21.883Z,2.40
2018-06-27T17:34:54.501Z,2.13
2018-06-27T17:37:27.171Z,2.20
2018-06-27T17:40:01.287Z,1.80
2018-06-27T17:42:33.763Z,2.20
2018-06-27T17:45:06.361Z,2.20
2018-06-27T17:47:38.899Z,2.03
2018-06-27T17:50:11.555Z,1.97
2018-06-27T17:52:44.099Z,2.33
2018-06-27T17:55:16.834Z,2.30
2018-06-27T17:57:49.413Z,2.10
2018-06-27T18:00:21.991Z,2.40
2018-06-27T18:02:54.529Z,2.00
2018-06-27T18:05:27.170Z,2.70
2018-06-27T18:07:59.944Z,2.17
2018-06-27T18:10:32.741Z,2.43
2018-06-27T18:13:05.722Z,2.37
2018-06-27T18:15:38.186Z,2.07
2018-06-27T18:18:10.676Z,2.30
2018-06-27T18:20:43.242Z,2.43
2018-06-27T18:23:15.826Z,2.30
2018-06-27T18:25:48.747Z,2.50
2018-06-27T18:28:21.244Z,2.37
2018-06-27T18:30:53.924Z,2.43
2018-06-27T18:33:26.500Z,3.50
2018-06-27T18:35:59.039Z,2.00
2018-06-27T18:38:31.627Z,3.23
2018-06-27T18:41:04.818Z,2.40
2018-06-27T18:43:37.314Z,2.50
2018-06-27T18:46:09.834Z,2.43
2018-06-27T18:48:42.625Z,2.60
2018-06-27T18:51:15.298Z,2.30
2018-06-27T18:53:47.941Z,2.40
2018-06-27T18:56:20.976Z,2.30
2018-06-27T18:58:53.923Z,2.20
2018-06-27T19:01:27.008Z,2.33
2018-06-27T19:04:00.010Z,2.50
2018-06-27T19:06:32.698Z,2.60
2018-06-27T19:09:08.503Z,2.47
2018-06-27T19:11:41.729Z,2.50
2018-06-27T19:14:14.413Z,2.67
2018-06-27T19:16:46.875Z,2.30
2018-06-27T19:19:19.461Z,2.70
2018-06-27T19:21:51.991Z,2.70
2018-06-27T19:24:24.519Z,2.70
2018-06-27T19:26:57.310Z,2.57
2018-06-27T19:29:30.114Z,2.90
2018-06-27T19:32:02.700Z,2.93
2018-06-27T19:34:36.393Z,2.93
2018-06-27T19:37:09.205Z,2.43
2018-06-27T19:39:41.782Z,2.80
2018-06-27T19:42:16.317Z,2.53
2018-06-27T19:44:48.883Z,3.00
2018-06-27T19:47:21.402Z,2.70
2018-06-27T19:49:55.542Z,2.90
2018-06-27T19:52:28.444Z,2.80
2018-06-27T19:55:01.593Z,2.60
2018-06-27T19:57:34.086Z,2.50
2018-06-27T20:00:06.700Z,2.70
2018-06-27T20:02:39.886Z,3.20
2018-06-27T20:05:12.943Z,2.70
2018-06-27T20:07:45.543Z,2.60
2018-06-27T20:10:18.033Z,2.80
2018-06-27T20:12:50.665Z,2.90
2018-06-27T20:15:23.344Z,2.90
2018-06-27T20:17:55.815Z,3.07
2018-06-27T20:20:28.518Z,3.37
2018-06-27T20:23:01.218Z,3.00
2018-06-27T20:25:33.767Z,2.80
2018-06-27T20:28:06.859Z,3.10
2018-06-27T20:30:39.357Z,3.53
2018-06-27T20:33:12.137Z,3.20
2018-06-27T20:35:44.667Z,3.77
2018-06-27T20:38:17.185Z,3.70
2018-06-27T20:40:50.694Z,3.50
2018-06-27T20:43:24.121Z,4.10
2018-06-27T20:45:56.615Z,3.50
2018-06-27T20:48:29.612Z,3.17
2018-06-27T20:51:02.136Z,3.57
2018-06-27T20:53:34.577Z,3.47
2018-06-27T20:56:07.227Z,4.13
2018-06-27T20:58:39.735Z,3.97
2018-06-27T21:01:12.531Z,3.90
2018-06-27T21:03:45.073Z,4.40
2018-06-27T21:06:17.756Z,3.27
2018-06-27T21:08:50.664Z,3.57
2018-06-27T21:11:23.181Z,3.63
2018-06-27T21:13:55.914Z,3.20
2018-06-27T21:16:28.398Z,3.77
2018-06-27T21:19:01.195Z,3.57
2018-06-27T21:21:33.967Z,3.73
2018-06-27T21:24:06.556Z,4.00
2018-06-27T21:26:39.039Z,4.20
2018-06-27T21:29:12.319Z,3.53
2018-06-27T21:31:44.873Z,3.70
2018-06-27T21:34:17.376Z,3.33
2018-06-27T21:36:49.844Z,3.47
2018-06-27T21:39:22.531Z,3.63
2018-06-27T21:41:54.991Z,3.77
2018-06-27T21:44:29.934Z,3.80
2018-06-27T21:47:02.585Z,3.60
2018-06-27T21:49:35.154Z,4.20
2018-06-27T21:52:09.245Z,3.90
2018-06-27T21:54:41.660Z,4.00
2018-06-27T21:57:14.132Z,3.53
2018-06-27T21:59:46.596Z,4.83
2018-06-27T22:02:19.095Z,4.00
2018-06-27T22:04:51.663Z,6.10
2018-06-27T22:07:25.039Z,4.13
2018-06-27T22:09:57.468Z,4.10
2018-06-27T22:12:29.979Z,3.50
2018-06-27T22:15:02.542Z,3.90
2018-06-27T22:17:35.066Z,3.83
2018-06-27T22:20:07.552Z,3.87
2018-06-27T22:22:40.033Z,3.70
2018-06-27T22:25:12.571Z,3.67
2018-06-27T22:27:45.152Z,3.90
2018-06-27T22:30:17.635Z,4.13
2018-06-27T22:32:50.164Z,3.47
2018-06-27T22:35:22.865Z,3.50
2018-06-27T22:37:55.329Z,3.57
2018-06-27T22:40:28.193Z,3.70
2018-06-27T22:43:00.696Z,4.00
2018-06-27T22:45:33.257Z,3.20
2018-06-27T22:48:05.681Z,4.10
2018-06-27T22:50:38.208Z,4.03
2018-06-27T22:53:10.780Z,3.70
2018-06-27T22:55:43.427Z,4.80
2018-06-27T22:58:15.863Z,4.50
2018-06-27T23:00:48.617Z,3.80
2018-06-27T23:03:21.184Z,3.57
2018-06-27T23:05:53.844Z,3.63
2018-06-27T23:08:26.267Z,4.10
2018-06-27T23:10:58.800Z,3.40
2018-06-27T23:13:31.416Z,9.00
2018-06-27T23:16:04.394Z,4.00
2018-06-27T23:18:36.901Z,3.50
2018-06-27T23:21:09.577Z,5.70
2018-06-27T23:23:42.014Z,3.53
2018-06-27T23:26:14.497Z,4.87
2018-06-27T23:28:46.966Z,3.70
2018-06-27T23:31:20.327Z,4.13
2018-06-27T23:33:52.997Z,3.80
2018-06-27T23:36:25.458Z,4.10
2018-06-27T23:38:57.929Z,4.50
2018-06-27T23:41:30.417Z,4.43
2018-06-27T23:44:03.018Z,4.27
2018-06-27T23:46:35.661Z,4.30
2018-06-27T23:49:08.120Z,4.10
2018-06-27T23:51:40.567Z,4.10
2018-06-27T23:54:13.011Z,3.70
2018-06-27T23:56:45.486Z,4.13
2018-06-27T23:59:18.241Z,4.03
